Time;durP1;ratioP1;P1;durP2;ratioP2;P2;SDS_P1;SDS_P2;PMS_P1;PMS_P2;Temp;Humidity;BMP_temperature;BMP_pressure;BME280_temperature;BME280_humidity;BME280_pressure;Samples;Min_cycle;Max_cycle;Signal;HPM_P1;HPM_P2
2023/03/02 00:00:37;;;;;;;31.52;21.20;;;;;;;;;;5011534;28;98713;-77
2023/03/02 00:03:04;;;;;;;44.13;30.65;;;;;;;;;;5010871;28;99035;-77
2023/03/02 00:05:33;;;;;;;38.70;25.02;;;;;;;;;;5012743;28;98901;-77
2023/03/02 00:08:00;;;;;;;41.97;27.63;;;;;;;;;;5014845;28;98633;-77
2023/03/02 00:10:26;;;;;;;35.83;24.42;;;;;;;;;;5012581;28;98321;-77
2023/03/02 00:12:54;;;;;;;44.42;28.58;;;;;;;;;;5012451;28;98589;-78
2023/03/02 00:15:21;;;;;;;37.92;25.65;;;;;;;;;;5011091;28;99058;-77
2023/03/02 00:17:48;;;;;;;49.92;30.67;;;;;;;;;;5011769;28;98985;-77
2023/03/02 00:20:15;;;;;;;54.40;30.30;;;;;;;;;;5010202;28;99062;-77
2023/03/02 00:22:43;;;;;;;51.40;31.00;;;;;;;;;;5010051;28;99987;-78
2023/03/02 00:25:10;;;;;;;44.58;27.83;;;;;;;;;;5011444;28;98295;-78
2023/03/02 00:27:36;;;;;;;36.17;23.20;;;;;;;;;;5013714;28;99365;-78
2023/03/02 00:30:04;;;;;;;48.42;29.33;;;;;;;;;;5010001;28;98480;-77
2023/03/02 00:32:30;;;;;;;44.80;27.95;;;;;;;;;;5010777;28;99511;-77
2023/03/02 00:34:58;;;;;;;48.15;28.52;;;;;;;;;;5009865;28;99957;-77
2023/03/02 00:37:25;;;;;;;46.55;29.70;;;;;;;;;;5009730;28;98253;-77
2023/03/02 00:39:52;;;;;;;52.25;31.92;;;;;;;;;;5010937;28;98426;-77
2023/03/02 00:42:19;;;;;;;40.72;26.30;;;;;;;;;;5026722;28;98667;-77
2023/03/02 00:44:45;;;;;;;46.88;28.20;;;;;;;;;;5029664;27;98202;-77
2023/03/02 00:47:12;;;;;;;58.63;34.05;;;;;;;;;;5029427;28;99439;-77
2023/03/02 00:49:38;;;;;;;64.22;33.72;;;;;;;;;;5032658;27;99161;-77
2023/03/02 00:52:05;;;;;;;62.13;33.25;;;;;;;;;;5030129;28;98657;-78
2023/03/02 00:54:31;;;;;;;58.13;33.17;;;;;;;;;;5030330;28;100033;-77
2023/03/02 00:56:57;;;;;;;58.20;33.85;;;;;;;;;;5029477;28;99010;-77
2023/03/02 00:59:27;;;;;;;52.42;32.58;;;;;;;;;;5010072;28;98869;-76
2023/03/02 01:02:28;;;;;;;38.67;24.92;;;;;;;;;;4998859;28;99217;-78
2023/03/02 01:04:56;;;;;;;51.70;31.60;;;;;;;;;;5007843;28;98516;-78
2023/03/02 01:07:25;;;;;;;60.88;33.20;;;;;;;;;;5009378;28;99554;-76
2023/03/02 01:09:51;;;;;;;37.42;22.75;;;;;;;;;;5007218;28;101004;-78
2023/03/02 01:12:17;;;;;;;58.38;31.90;;;;;;;;;;5013514;28;98626;-78
2023/03/02 01:14:46;;;;;;;62.42;34.55;;;;;;;;;;5010693;28;100021;-78
2023/03/02 01:17:13;;;;;;;53.88;30.33;;;;;;;;;;5009966;28;98409;-78
2023/03/02 01:19:39;;;;;;;72.07;37.10;;;;;;;;;;5009541;28;98511;-77
2023/03/02 01:22:06;;;;;;;64.40;37.40;;;;;;;;;;5010011;28;99029;-77
2023/03/02 01:24:32;;;;;;;63.10;33.13;;;;;;;;;;5010534;28;98286;-78
2023/03/02 01:26:59;;;;;;;71.68;37.47;;;;;;;;;;5009134;28;100203;-77
2023/03/02 01:29:25;;;;;;;69.30;35.60;;;;;;;;;;5009514;28;99013;-77
2023/03/02 01:31:52;;;;;;;60.58;33.28;;;;;;;;;;5010554;28;99345;-76
2023/03/02 01:34:18;;;;;;;55.53;30.83;;;;;;;;;;5011704;28;98211;-79
2023/03/02 01:36:45;;;;;;;65.03;36.83;;;;;;;;;;5010162;28;98230;-77
2023/03/02 01:39:14;;;;;;;75.53;37.72;;;;;;;;;;5010087;28;98433;-78
2023/03/02 01:41:42;;;;;;;73.55;36.22;;;;;;;;;;5007444;28;101348;-78
2023/03/02 01:44:28;;;;;;;75.30;37.78;;;;;;;;;;5008795;28;98036;-76
2023/03/02 01:46:55;;;;;;;66.57;32.78;;;;;;;;;;5008852;28;98413;-78
2023/03/02 01:49:21;;;;;;;63.47;33.30;;;;;;;;;;5020015;27;101717;-77
2023/03/02 01:51:53;;;;;;;67.43;35.63;;;;;;;;;;5028547;28;98478;-77
2023/03/02 01:54:22;;;;;;;57.72;30.45;;;;;;;;;;5027010;28;100762;-77
2023/03/02 01:56:56;;;;;;;62.38;36.47;;;;;;;;;;5030903;27;101246;-77
2023/03/02 01:59:23;;;;;;;44.42;25.38;;;;;;;;;;5010827;28;100261;-77
2023/03/02 02:01:54;;;;;;;63.50;33.97;;;;;;;;;;5028313;27;99106;-77
2023/03/02 02:04:21;;;;;;;45.33;25.75;;;;;;;;;;5028506;28;98331;-77
2023/03/02 02:07:03;;;;;;;39.67;19.98;;;;;;;;;;5027383;28;100432;-77
2023/03/02 02:09:32;;;;;;;61.58;35.45;;;;;;;;;;5027244;28;100781;-77
2023/03/02 02:11:59;;;;;;;46.53;26.17;;;;;;;;;;5027911;28;98432;-77
2023/03/02 02:14:25;;;;;;;55.08;29.02;;;;;;;;;;5029192;28;99506;-77
2023/03/02 02:16:51;;;;;;;28.65;20.48;;;;;;;;;;5029238;27;99385;-76
2023/03/02 02:19:24;;;;;;;56.65;30.95;;;;;;;;;;5032256;27;98128;-76
2023/03/02 02:21:51;;;;;;;58.35;32.08;;;;;;;;;;5028884;28;98899;-76
2023/03/02 02:24:20;;;;;;;58.90;33.75;;;;;;;;;;5025912;28;98379;-76
2023/03/02 02:26:48;;;;;;;41.47;22.92;;;;;;;;;;5028610;28;99387;-76
2023/03/02 02:29:21;;;;;;;61.08;33.78;;;;;;;;;;5026926;28;101771;-77
2023/03/02 02:31:48;;;;;;;59.55;33.40;;;;;;;;;;5027311;28;98270;-77
2023/03/02 02:34:21;;;;;;;64.13;33.60;;;;;;;;;;5029243;28;98323;-78
2023/03/02 02:36:52;;;;;;;58.20;33.33;;;;;;;;;;5026542;28;101532;-77
2023/03/02 02:39:21;;;;;;;56.17;28.55;;;;;;;;;;5031709;27;98262;-78
2023/03/02 02:41:53;;;;;;;56.45;31.20;;;;;;;;;;5027722;28;100989;-78
2023/03/02 02:44:20;;;;;;;54.42;30.20;;;;;;;;;;5027426;27;98217;-77
2023/03/02 02:46:46;;;;;;;58.85;34.05;;;;;;;;;;5027892;28;100022;-77
2023/03/02 02:49:34;;;;;;;61.55;34.30;;;;;;;;;;5026050;28;100171;-77
2023/03/02 02:52:01;;;;;;;64.55;34.28;;;;;;;;;;5027875;27;98226;-77
2023/03/02 02:54:28;;;;;;;38.70;19.63;;;;;;;;;;5028366;28;98344;-78
2023/03/02 02:56:55;;;;;;;59.97;34.13;;;;;;;;;;5022368;27;98095;-77
2023/03/02 02:59:24;;;;;;;60.72;32.05;;;;;;;;;;5009282;28;99059;-77
2023/03/02 03:01:51;;;;;;;60.08;31.42;;;;;;;;;;5011715;28;99792;-77
2023/03/02 03:04:20;;;;;;;60.65;33.13;;;;;;;;;;5006782;28;98938;-77
2023/03/02 03:06:52;;;;;;;36.80;20.35;;;;;;;;;;5007670;28;99696;-78
2023/03/02 03:09:20;;;;;;;51.28;28.35;;;;;;;;;;5006968;28;100814;-77
2023/03/02 03:11:53;;;;;;;56.50;29.63;;;;;;;;;;5008124;28;98555;-77
2023/03/02 03:14:28;;;;;;;38.13;20.37;;;;;;;;;;5006889;28;100443;-77
2023/03/02 03:16:55;;;;;;;57.00;29.02;;;;;;;;;;5006766;28;101209;-77
2023/03/02 03:19:23;;;;;;;52.47;27.10;;;;;;;;;;5007913;28;98283;-77
2023/03/02 03:21:52;;;;;;;47.60;27.05;;;;;;;;;;5006544;28;99894;-77
2023/03/02 03:24:20;;;;;;;52.33;31.35;;;;;;;;;;5010226;28;98874;-77
2023/03/02 03:26:47;;;;;;;33.83;17.67;;;;;;;;;;5006850;28;100262;-77
2023/03/02 03:29:15;;;;;;;54.30;22.83;;;;;;;;;;5010696;28;98893;-77
2023/03/02 03:31:41;;;;;;;48.53;28.50;;;;;;;;;;5011609;28;98324;-77
2023/03/02 03:34:08;;;;;;;49.25;28.38;;;;;;;;;;5010867;28;98644;-77
2023/03/02 03:36:35;;;;;;;52.90;29.15;;;;;;;;;;5043823;27;99894;-77
2023/03/02 03:39:03;;;;;;;51.63;29.98;;;;;;;;;;5010185;28;98889;-77
2023/03/02 03:41:29;;;;;;;48.53;27.50;;;;;;;;;;5009767;28;101148;-77
2023/03/02 03:43:56;;;;;;;50.97;25.85;;;;;;;;;;5009928;28;101558;-77
2023/03/02 03:46:23;;;;;;;53.15;29.38;;;;;;;;;;5044739;27;98669;-77
2023/03/02 03:48:50;;;;;;;46.50;27.13;;;;;;;;;;5010381;28;98956;-77
2023/03/02 03:51:17;;;;;;;51.47;27.48;;;;;;;;;;5030354;27;98776;-77
2023/03/02 03:53:45;;;;;;;49.80;27.60;;;;;;;;;;5030555;28;98424;-77
2023/03/02 03:56:11;;;;;;;52.35;30.33;;;;;;;;;;5030947;27;98961;-77
2023/03/02 03:58:38;;;;;;;57.33;29.60;;;;;;;;;;5030225;28;98917;-78
2023/03/02 04:01:05;;;;;;;52.35;28.63;;;;;;;;;;5028538;28;101078;-77
2023/03/02 04:03:31;;;;;;;55.00;30.75;;;;;;;;;;5028845;28;101325;-77
2023/03/02 04:05:57;;;;;;;37.17;22.38;;;;;;;;;;5016906;27;98985;-77
2023/03/02 04:08:24;;;;;;;39.72;25.15;;;;;;;;;;5012361;28;98715;-78
2023/03/02 04:10:50;;;;;;;45.08;27.38;;;;;;;;;;5011512;28;98294;-79
2023/03/02 04:13:17;;;;;;;47.35;26.83;;;;;;;;;;5009751;28;101081;-78
2023/03/02 04:15:43;;;;;;;52.55;28.88;;;;;;;;;;5009583;28;100985;-78
2023/03/02 04:18:12;;;;;;;50.55;28.38;;;;;;;;;;5009166;28;98866;-78
2023/03/02 04:20:39;;;;;;;51.80;29.55;;;;;;;;;;5009336;28;98483;-77
2023/03/02 04:23:05;;;;;;;55.10;30.95;;;;;;;;;;5008607;28;101473;-77
2023/03/02 04:25:32;;;;;;;46.85;27.08;;;;;;;;;;5009441;28;98297;-77
2023/03/02 04:28:04;;;;;;;44.83;23.20;;;;;;;;;;5009535;28;99543;-77
2023/03/02 04:30:35;;;;;;;52.67;27.25;;;;;;;;;;5012518;28;98246;-77
2023/03/02 04:33:01;;;;;;;47.47;27.42;;;;;;;;;;5011184;28;98338;-77
2023/03/02 04:35:29;;;;;;;41.88;22.60;;;;;;;;;;5009045;28;100106;-77
2023/03/02 04:37:56;;;;;;;37.25;21.77;;;;;;;;;;5009336;28;98209;-76
2023/03/02 04:40:23;;;;;;;44.60;25.98;;;;;;;;;;5010440;28;100018;-77
2023/03/02 04:42:49;;;;;;;48.25;25.65;;;;;;;;;;5009831;28;100425;-77
2023/03/02 04:45:16;;;;;;;57.20;28.83;;;;;;;;;;5031010;27;98305;-77
2023/03/02 04:47:42;;;;;;;44.63;23.85;;;;;;;;;;5030499;27;99144;-77
2023/03/02 04:50:10;;;;;;;28.10;19.60;;;;;;;;;;5032737;27;100228;-77
2023/03/02 04:52:37;;;;;;;47.70;27.98;;;;;;;;;;5029757;28;99455;-77
2023/03/02 04:55:04;;;;;;;47.70;25.35;;;;;;;;;;5029349;27;99061;-77
2023/03/02 04:57:31;;;;;;;38.88;21.17;;;;;;;;;;5010906;27;98435;-78
2023/03/02 04:59:57;;;;;;;53.00;27.02;;;;;;;;;;5010165;28;99597;-76
2023/03/02 05:02:23;;;;;;;50.00;25.60;;;;;;;;;;5009162;28;99321;-78
2023/03/02 05:04:57;;;;;;;50.85;27.30;;;;;;;;;;5009683;28;98089;-78
2023/03/02 05:07:24;;;;;;;50.15;26.98;;;;;;;;;;5010165;28;98617;-78
2023/03/02 05:09:50;;;;;;;38.38;23.73;;;;;;;;;;5010293;28;100062;-78
2023/03/02 05:12:20;;;;;;;57.75;30.10;;;;;;;;;;5013646;28;98239;-78
2023/03/02 05:14:46;;;;;;;39.25;21.58;;;;;;;;;;5009989;28;99180;-77
2023/03/02 05:17:13;;;;;;;58.33;29.52;;;;;;;;;;5009183;28;98546;-76
2023/03/02 05:19:39;;;;;;;30.83;19.42;;;;;;;;;;5008923;28;100020;-76
2023/03/02 05:22:05;;;;;;;42.72;23.70;;;;;;;;;;5008957;28;99992;-77
2023/03/02 05:24:32;;;;;;;53.30;28.55;;;;;;;;;;5013598;27;98366;-76
2023/03/02 05:26:58;;;;;;;52.38;27.60;;;;;;;;;;5029826;28;99572;-76
2023/03/02 05:29:25;;;;;;;59.85;29.25;;;;;;;;;;5028238;28;100010;-76
2023/03/02 05:31:51;;;;;;;57.75;29.33;;;;;;;;;;5009002;28;98272;-78
2023/03/02 05:34:17;;;;;;;45.58;23.63;;;;;;;;;;5012972;28;99247;-78
2023/03/02 05:36:44;;;;;;;55.83;29.35;;;;;;;;;;5009757;28;98649;-78
2023/03/02 05:39:11;;;;;;;49.80;25.27;;;;;;;;;;5008736;28;99665;-78
2023/03/02 05:41:38;;;;;;;52.35;28.10;;;;;;;;;;5008355;28;100313;-78
2023/03/02 05:44:08;;;;;;;44.55;24.65;;;;;;;;;;5017647;28;98025;-77
2023/03/02 05:46:35;;;;;;;48.08;21.80;;;;;;;;;;5026536;27;98422;-77
2023/03/02 05:49:02;;;;;;;56.47;29.30;;;;;;;;;;5008008;28;99044;-77
2023/03/02 05:51:28;;;;;;;55.15;27.70;;;;;;;;;;5029281;28;98828;-77
2023/03/02 05:53:54;;;;;;;61.42;31.52;;;;;;;;;;5028160;28;99548;-77
2023/03/02 05:56:21;;;;;;;45.38;24.00;;;;;;;;;;5031668;27;100007;-77
2023/03/02 05:58:47;;;;;;;51.05;28.52;;;;;;;;;;5029486;27;98620;-77
2023/03/02 06:01:14;;;;;;;59.03;29.75;;;;;;;;;;5028107;28;99052;-77
2023/03/02 06:03:42;;;;;;;55.17;29.65;;;;;;;;;;5025961;28;98126;-77
2023/03/02 06:06:12;;;;;;;53.95;28.75;;;;;;;;;;5008787;28;98503;-77
2023/03/02 06:08:39;;;;;;;43.35;24.15;;;;;;;;;;5009013;28;100649;-77
2023/03/02 06:11:06;;;;;;;46.42;25.92;;;;;;;;;;5009521;28;98325;-77
2023/03/02 06:13:33;;;;;;;56.75;27.75;;;;;;;;;;5010106;28;99769;-77
2023/03/02 06:15:59;;;;;;;61.00;28.35;;;;;;;;;;5008852;28;100643;-78
2023/03/02 06:18:25;;;;;;;50.20;26.52;;;;;;;;;;5013043;28;98231;-77
2023/03/02 06:20:52;;;;;;;40.65;22.98;;;;;;;;;;5008123;28;99046;-77
2023/03/02 06:23:18;;;;;;;54.15;26.95;;;;;;;;;;5009263;28;98071;-76
2023/03/02 06:25:47;;;;;;;56.15;30.60;;;;;;;;;;5009259;28;98905;-78
2023/03/02 06:28:14;;;;;;;44.42;24.23;;;;;;;;;;5008494;28;98984;-77
2023/03/02 06:30:41;;;;;;;46.08;23.90;;;;;;;;;;5008784;28;98286;-77
2023/03/02 06:33:08;;;;;;;55.00;28.67;;;;;;;;;;5009273;28;99792;-77
2023/03/02 06:35:34;;;;;;;39.85;19.17;;;;;;;;;;5007906;28;100104;-77
2023/03/02 06:38:01;;;;;;;53.10;29.65;;;;;;;;;;5018701;28;98319;-77
2023/03/02 06:40:27;;;;;;;52.03;27.95;;;;;;;;;;5028595;28;100060;-77
2023/03/02 06:42:53;;;;;;;53.78;28.50;;;;;;;;;;5028236;27;98923;-78
2023/03/02 06:45:20;;;;;;;51.05;28.55;;;;;;;;;;5028032;28;99664;-79
2023/03/02 06:47:46;;;;;;;67.47;37.13;;;;;;;;;;5029868;27;98933;-77
2023/03/02 06:50:12;;;;;;;48.72;23.55;;;;;;;;;;5025695;28;98799;-77
2023/03/02 06:52:39;;;;;;;41.33;21.08;;;;;;;;;;5008975;28;99834;-78
2023/03/02 06:55:06;;;;;;;64.45;29.92;;;;;;;;;;5019923;28;99044;-79
2023/03/02 06:57:32;;;;;;;52.78;29.50;;;;;;;;;;5024541;27;98748;-78
2023/03/02 07:00:08;;;;;;;48.10;22.90;;;;;;;;;;5030857;27;98751;-76
2023/03/02 07:02:35;;;;;;;43.30;23.42;;;;;;;;;;5021270;27;98432;-76
2023/03/02 07:05:02;;;;;;;56.60;29.70;;;;;;;;;;5011698;28;99549;-78
2023/03/02 07:07:28;;;;;;;55.03;27.02;;;;;;;;;;5021712;27;99869;-78
2023/03/02 07:09:55;;;;;;;48.95;25.83;;;;;;;;;;5029669;28;98383;-78
2023/03/02 07:12:21;;;;;;;42.70;22.55;;;;;;;;;;5031027;27;98993;-82
2023/03/02 07:14:49;;;;;;;61.47;29.25;;;;;;;;;;5025950;28;100321;-79
2023/03/02 07:17:15;;;;;;;50.70;25.67;;;;;;;;;;5027860;28;98292;-78
2023/03/02 07:19:41;;;;;;;55.42;28.42;;;;;;;;;;5018529;28;99808;-77
2023/03/02 07:22:08;;;;;;;88.22;62.60;;;;;;;;;;5031287;27;99250;-77
2023/03/02 07:24:34;;;;;;;68.80;41.67;;;;;;;;;;5026688;28;100919;-78
2023/03/02 07:27:01;;;;;;;65.65;38.67;;;;;;;;;;5023444;28;99151;-77
2023/03/02 07:29:27;;;;;;;49.78;24.95;;;;;;;;;;5031633;27;98896;-77
2023/03/02 07:31:56;;;;;;;40.00;22.13;;;;;;;;;;5031127;28;99547;-77
2023/03/02 07:34:23;;;;;;;50.60;26.52;;;;;;;;;;5031930;28;101010;-77
2023/03/02 07:36:50;;;;;;;53.80;28.45;;;;;;;;;;5029405;27;98400;-78
2023/03/02 07:39:16;;;;;;;49.42;25.63;;;;;;;;;;5010899;28;99446;-77
2023/03/02 07:41:43;;;;;;;47.88;26.25;;;;;;;;;;5015955;28;98991;-77
2023/03/02 07:44:11;;;;;;;36.50;19.50;;;;;;;;;;5031285;28;98326;-77
2023/03/02 07:46:38;;;;;;;37.47;20.65;;;;;;;;;;5030276;27;99832;-77
2023/03/02 07:49:04;;;;;;;39.97;23.23;;;;;;;;;;5031639;27;98660;-79
2023/03/02 07:51:31;;;;;;;48.92;26.77;;;;;;;;;;5032060;28;99601;-78
2023/03/02 07:53:58;;;;;;;41.30;23.98;;;;;;;;;;5030265;27;99755;-78
2023/03/02 07:56:24;;;;;;;41.53;23.38;;;;;;;;;;5028108;28;99616;-79
2023/03/02 07:58:51;;;;;;;49.38;24.77;;;;;;;;;;5026152;28;98495;-78
2023/03/02 08:01:17;;;;;;;44.25;24.83;;;;;;;;;;5019745;28;100419;-78
2023/03/02 08:03:43;;;;;;;38.83;21.00;;;;;;;;;;5024665;28;98254;-78
2023/03/02 08:06:12;;;;;;;40.30;23.00;;;;;;;;;;5031709;27;99517;-78
2023/03/02 08:08:38;;;;;;;45.90;24.10;;;;;;;;;;5027153;28;98363;-77
2023/03/02 08:11:09;;;;;;;38.65;21.83;;;;;;;;;;5030468;28;99524;-78
2023/03/02 08:13:35;;;;;;;40.30;23.25;;;;;;;;;;5029117;28;100013;-77
2023/03/02 08:16:03;;;;;;;40.28;21.83;;;;;;;;;;5031813;27;98272;-74
2023/03/02 08:18:29;;;;;;;39.30;22.73;;;;;;;;;;5030841;27;98699;-75
2023/03/02 08:20:56;;;;;;;33.92;20.20;;;;;;;;;;5030316;28;99928;-75
2023/03/02 08:23:23;;;;;;;40.70;22.33;;;;;;;;;;5031168;28;98241;-76
2023/03/02 08:25:50;;;;;;;36.65;20.05;;;;;;;;;;5031305;28;99503;-76
2023/03/02 08:28:17;;;;;;;41.67;22.38;;;;;;;;;;5033390;28;99981;-76
2023/03/02 08:30:43;;;;;;;31.27;18.70;;;;;;;;;;5030743;27;98887;-76
2023/03/02 08:33:10;;;;;;;41.53;23.05;;;;;;;;;;5028963;28;99149;-75
2023/03/02 08:35:36;;;;;;;33.63;18.85;;;;;;;;;;5029221;27;98168;-76
2023/03/02 08:38:02;;;;;;;27.02;17.13;;;;;;;;;;5027991;28;98658;-76
2023/03/02 08:40:29;;;;;;;34.47;20.52;;;;;;;;;;5029996;27;98994;-76
2023/03/02 08:42:56;;;;;;;33.30;18.23;;;;;;;;;;5029451;28;98589;-75
2023/03/02 08:45:25;;;;;;;33.80;20.50;;;;;;;;;;5029923;27;98708;-76
2023/03/02 08:47:52;;;;;;;29.52;17.63;;;;;;;;;;5033143;27;99857;-76
2023/03/02 08:50:19;;;;;;;33.90;20.27;;;;;;;;;;5028643;27;98487;-76
2023/03/02 08:52:45;;;;;;;40.20;19.95;;;;;;;;;;5029967;28;100230;-77
2023/03/02 08:55:12;;;;;;;31.10;19.05;;;;;;;;;;5028768;27;98513;-76
2023/03/02 08:57:40;;;;;;;36.40;20.05;;;;;;;;;;5028738;27;98559;-76
2023/03/02 09:00:10;;;;;;;33.92;19.20;;;;;;;;;;5028381;28;100180;-75
2023/03/02 09:02:37;;;;;;;43.72;21.95;;;;;;;;;;5029119;27;98647;-76
2023/03/02 09:05:03;;;;;;;36.38;19.55;;;;;;;;;;5029809;28;99960;-76
2023/03/02 09:07:30;;;;;;;39.72;21.73;;;;;;;;;;5029973;28;100182;-76
2023/03/02 09:09:56;;;;;;;27.77;17.08;;;;;;;;;;5030198;28;99526;-76
2023/03/02 09:12:22;;;;;;;25.73;14.18;;;;;;;;;;5029626;27;99098;-76
2023/03/02 09:14:49;;;;;;;36.67;20.50;;;;;;;;;;5029767;28;98237;-79
2023/03/02 09:17:16;;;;;;;27.27;17.08;;;;;;;;;;5028993;28;98577;-76
2023/03/02 09:19:42;;;;;;;38.45;20.40;;;;;;;;;;5029585;27;99129;-76
2023/03/02 09:22:10;;;;;;;33.13;19.92;;;;;;;;;;5027504;28;99894;-77
2023/03/02 09:24:36;;;;;;;26.17;16.08;;;;;;;;;;5027769;27;99069;-77
2023/03/02 09:27:02;;;;;;;19.55;13.80;;;;;;;;;;5029491;28;100338;-77
2023/03/02 09:29:29;;;;;;;26.60;15.27;;;;;;;;;;5030084;28;98234;-77
2023/03/02 09:31:55;;;;;;;29.17;15.25;;;;;;;;;;5032639;27;99780;-77
2023/03/02 09:34:22;;;;;;;28.73;16.70;;;;;;;;;;5029218;27;98294;-77
2023/03/02 09:36:48;;;;;;;31.05;17.92;;;;;;;;;;5028986;27;98682;-77
2023/03/02 09:39:15;;;;;;;25.63;13.82;;;;;;;;;;5029672;27;100005;-77
2023/03/02 09:41:55;;;;;;;28.75;18.67;;;;;;;;;;5029887;28;98245;-76
2023/03/02 09:44:22;;;;;;;34.00;18.83;;;;;;;;;;5029687;27;98737;-75
2023/03/02 09:46:50;;;;;;;27.48;15.77;;;;;;;;;;5027633;27;99001;-77
2023/03/02 09:49:35;;;;;;;30.65;18.33;;;;;;;;;;5028149;28;99954;-77
2023/03/02 09:52:15;;;;;;;26.08;15.40;;;;;;;;;;5028492;28;99878;-77
2023/03/02 09:54:41;;;;;;;28.05;17.10;;;;;;;;;;5032387;27;100202;-77
2023/03/02 09:57:18;;;;;;;28.80;15.93;;;;;;;;;;5029437;27;99925;-77
2023/03/02 09:59:47;;;;;;;27.73;14.02;;;;;;;;;;5028710;27;98962;-77
2023/03/02 10:02:23;;;;;;;35.53;17.13;;;;;;;;;;5029364;27;98333;-76
2023/03/02 10:04:52;;;;;;;31.70;15.23;;;;;;;;;;5029259;27;99010;-77
2023/03/02 10:07:23;;;;;;;33.88;18.83;;;;;;;;;;5027949;27;99312;-76
2023/03/02 10:09:49;;;;;;;21.42;13.85;;;;;;;;;;5027761;27;99186;-77
2023/03/02 10:12:21;;;;;;;24.42;14.07;;;;;;;;;;5027952;28;99424;-76
2023/03/02 10:14:54;;;;;;;24.02;14.30;;;;;;;;;;5027991;28;100137;-74
2023/03/02 10:17:29;;;;;;;30.52;17.48;;;;;;;;;;5032189;28;98205;-76
2023/03/02 10:19:59;;;;;;;24.92;16.42;;;;;;;;;;5027799;27;99240;-77
2023/03/02 10:22:31;;;;;;;24.80;12.52;;;;;;;;;;5029571;27;98024;-77
2023/03/02 10:25:10;;;;;;;18.30;12.43;;;;;;;;;;5028957;27;98858;-76
2023/03/02 10:27:40;;;;;;;23.48;14.68;;;;;;;;;;5028896;27;100067;-78
2023/03/02 10:30:19;;;;;;;27.42;14.95;;;;;;;;;;5029316;28;99307;-78
2023/03/02 10:32:50;;;;;;;28.05;15.95;;;;;;;;;;5029189;27;100007;-78
2023/03/02 10:35:21;;;;;;;23.08;14.80;;;;;;;;;;5026978;27;99483;-77
2023/03/02 10:37:54;;;;;;;23.23;14.60;;;;;;;;;;5031537;27;98451;-78
2023/03/02 10:40:38;;;;;;;21.63;13.10;;;;;;;;;;5035953;27;99467;-78
2023/03/02 10:43:06;;;;;;;23.25;14.18;;;;;;;;;;5032058;28;98265;-77
2023/03/02 10:45:32;;;;;;;20.40;13.80;;;;;;;;;;5032279;27;98780;-78
2023/03/02 10:48:02;;;;;;;20.80;15.02;;;;;;;;;;5031197;27;99315;-77
2023/03/02 10:50:31;;;;;;;23.55;15.82;;;;;;;;;;5032959;28;98103;-77
2023/03/02 10:52:58;;;;;;;12.68;8.95;;;;;;;;;;5032437;27;99001;-77
2023/03/02 10:55:27;;;;;;;19.77;13.13;;;;;;;;;;5031215;27;100001;-77
2023/03/02 10:58:16;;;;;;;19.58;13.05;;;;;;;;;;5032277;27;98026;-77
2023/03/02 11:00:53;;;;;;;17.60;11.15;;;;;;;;;;5029438;27;99842;-77
2023/03/02 11:03:21;;;;;;;17.95;12.43;;;;;;;;;;5030293;28;98046;-77
2023/03/02 11:05:48;;;;;;;12.65;9.68;;;;;;;;;;5032103;27;98663;-77
2023/03/02 11:08:18;;;;;;;17.75;12.55;;;;;;;;;;5031556;27;98880;-77
2023/03/02 11:10:55;;;;;;;11.40;9.05;;;;;;;;;;5031483;27;98219;-77
2023/03/02 11:13:28;;;;;;;14.68;10.35;;;;;;;;;;5032562;27;99399;-77
2023/03/02 11:16:00;;;;;;;18.63;10.60;;;;;;;;;;5031611;27;100422;-76
2023/03/02 11:18:29;;;;;;;19.30;11.50;;;;;;;;;;5032520;27;98217;-78
2023/03/02 11:21:10;;;;;;;19.75;14.15;;;;;;;;;;5030604;27;100224;-77
2023/03/02 11:23:51;;;;;;;19.92;13.80;;;;;;;;;;5034392;28;100929;-77
2023/03/02 11:26:32;;;;;;;22.02;12.07;;;;;;;;;;5032392;27;99394;-77
2023/03/02 11:29:10;;;;;;;18.00;12.95;;;;;;;;;;5030495;27;99000;-77
2023/03/02 11:31:42;;;;;;;15.00;12.15;;;;;;;;;;5031707;28;98186;-78
2023/03/02 11:34:22;;;;;;;12.93;11.13;;;;;;;;;;5031941;27;99429;-77
2023/03/02 11:36:51;;;;;;;17.25;11.77;;;;;;;;;;5031334;27;100104;-77
2023/03/02 11:39:21;;;;;;;14.18;10.30;;;;;;;;;;5031359;27;98245;-77
2023/03/02 11:41:47;;;;;;;16.00;10.63;;;;;;;;;;5031762;27;98774;-77
2023/03/02 11:44:19;;;;;;;18.00;12.73;;;;;;;;;;5031155;27;100340;-77
2023/03/02 11:46:47;;;;;;;22.27;12.02;;;;;;;;;;5034617;27;98167;-77
2023/03/02 11:49:34;;;;;;;19.60;12.65;;;;;;;;;;5031535;27;100025;-77
2023/03/02 11:52:01;;;;;;;18.80;13.02;;;;;;;;;;5030876;28;98314;-77
2023/03/02 11:54:27;;;;;;;16.38;12.55;;;;;;;;;;5030838;28;99472;-75
2023/03/02 11:56:58;;;;;;;16.10;11.15;;;;;;;;;;5029359;27;101335;-75
2023/03/02 11:59:27;;;;;;;18.80;12.20;;;;;;;;;;5028329;27;99876;-77
2023/03/02 12:01:55;;;;;;;16.90;11.32;;;;;;;;;;5030883;27;99672;-75
2023/03/02 12:04:27;;;;;;;12.88;10.90;;;;;;;;;;5031090;27;99848;-77
2023/03/02 12:06:54;;;;;;;20.27;12.25;;;;;;;;;;5028980;27;98307;-78
2023/03/02 12:09:23;;;;;;;22.70;14.13;;;;;;;;;;5032536;27;99630;-78
2023/03/02 12:11:53;;;;;;;28.13;18.25;;;;;;;;;;5031285;27;98263;-78
2023/03/02 12:14:28;;;;;;;30.52;19.25;;;;;;;;;;5030698;28;99479;-78
2023/03/02 12:17:13;;;;;;;36.50;20.67;;;;;;;;;;5030187;27;98863;-77
2023/03/02 12:19:44;;;;;;;39.67;19.52;;;;;;;;;;5030239;28;98217;-78
2023/03/02 12:22:13;;;;;;;30.50;19.15;;;;;;;;;;5030885;27;99660;-78
2023/03/02 12:24:42;;;;;;;28.77;18.00;;;;;;;;;;5030807;27;99917;-77
2023/03/02 12:27:09;;;;;;;30.15;18.80;;;;;;;;;;5030670;27;98379;-77
2023/03/02 12:29:38;;;;;;;24.80;16.25;;;;;;;;;;5030327;28;98709;-78
2023/03/02 12:32:23;;;;;;;16.48;12.57;;;;;;;;;;5033519;28;98290;-78
2023/03/02 12:34:55;;;;;;;10.77;8.68;;;;;;;;;;5029575;27;98683;-77
2023/03/02 12:37:33;;;;;;;13.73;9.03;;;;;;;;;;5030920;27;99099;-77
2023/03/02 12:40:09;;;;;;;11.77;8.45;;;;;;;;;;5030230;28;98289;-78
2023/03/02 12:42:47;;;;;;;13.15;9.60;;;;;;;;;;5028858;27;98715;-77
2023/03/02 12:45:30;;;;;;;19.45;12.80;;;;;;;;;;5028906;27;99305;-76
2023/03/02 12:47:57;;;;;;;;;;;;;;;;;;5030039;27;98265;-77
2023/03/02 12:50:26;;;;;;;10.65;8.20;;;;;;;;;;5029029;27;127171;-77
2023/03/02 12:52:56;;;;;;;8.90;6.68;;;;;;;;;;5030923;28;100155;-77
2023/03/02 12:55:23;;;;;;;10.68;7.57;;;;;;;;;;5033432;28;98198;-77
2023/03/02 12:57:54;;;;;;;33.72;21.35;;;;;;;;;;5030104;27;100175;-77
2023/03/02 13:00:21;;;;;;;13.98;8.88;;;;;;;;;;5030876;27;98201;-77
2023/03/02 13:02:49;;;;;;;14.23;10.93;;;;;;;;;;5029935;27;98995;-77
2023/03/02 13:05:26;;;;;;;25.35;16.58;;;;;;;;;;5030210;27;100091;-78
2023/03/02 13:08:12;;;;;;;19.73;12.80;;;;;;;;;;5030288;27;98327;-78
2023/03/02 13:10:42;;;;;;;28.67;16.60;;;;;;;;;;5028950;27;98758;-78
2023/03/02 13:13:16;;;;;;;26.20;16.98;;;;;;;;;;5029713;27;98995;-77
2023/03/02 13:15:47;;;;;;;26.00;16.25;;;;;;;;;;5033099;27;98296;-76
2023/03/02 13:18:14;;;;;;;23.63;16.27;;;;;;;;;;5028045;27;99972;-77
2023/03/02 13:20:40;;;;;;;19.23;12.38;;;;;;;;;;5029554;27;98247;-77
2023/03/02 13:23:09;;;;;;;19.50;14.45;;;;;;;;;;5026760;27;98733;-76
2023/03/02 13:25:35;;;;;;;18.52;15.07;;;;;;;;;;5029608;27;99214;-77
2023/03/02 13:28:09;;;;;;;14.23;10.85;;;;;;;;;;5030280;28;98517;-77
2023/03/02 13:30:40;;;;;;;17.30;13.98;;;;;;;;;;5028930;27;99607;-78
2023/03/02 13:33:19;;;;;;;15.77;10.32;;;;;;;;;;5029291;27;100063;-78
2023/03/02 13:35:46;;;;;;;15.80;9.75;;;;;;;;;;5024802;27;98256;-80
2023/03/02 13:38:14;;;;;;;19.40;13.27;;;;;;;;;;5012858;28;99517;-78
2023/03/02 13:40:45;;;;;;;19.33;12.57;;;;;;;;;;5024834;28;98029;-76
2023/03/02 13:43:18;;;;;;;16.90;11.75;;;;;;;;;;5024088;27;99518;-78
2023/03/02 13:45:53;;;;;;;17.67;14.15;;;;;;;;;;5029139;27;100023;-77
2023/03/02 13:48:20;;;;;;;19.20;11.80;;;;;;;;;;5029348;27;98271;-77
2023/03/02 13:50:57;;;;;;;16.25;12.95;;;;;;;;;;5028987;27;98470;-77
2023/03/02 13:53:24;;;;;;;13.27;9.63;;;;;;;;;;5029326;27;99410;-76
2023/03/02 13:55:52;;;;;;;13.00;10.30;;;;;;;;;;5028101;27;98308;-76
2023/03/02 13:58:20;;;;;;;10.98;8.38;;;;;;;;;;5028869;28;98509;-76
2023/03/02 14:00:47;;;;;;;17.52;10.57;;;;;;;;;;5031368;27;99159;-76
2023/03/02 14:03:24;;;;;;;14.30;10.73;;;;;;;;;;5029681;28;99730;-76
2023/03/02 14:05:51;;;;;;;19.30;11.55;;;;;;;;;;5029186;28;99890;-77
2023/03/02 14:08:18;;;;;;;12.73;10.48;;;;;;;;;;5032498;27;98412;-76
2023/03/02 14:10:45;;;;;;;14.27;11.63;;;;;;;;;;5029817;28;99555;-76
2023/03/02 14:13:14;;;;;;;15.00;10.70;;;;;;;;;;5027366;28;101195;-78
2023/03/02 14:15:42;;;;;;;15.90;12.27;;;;;;;;;;5026579;28;98358;-77
2023/03/02 14:18:29;;;;;;;17.35;11.80;;;;;;;;;;5029597;27;99683;-75
2023/03/02 14:20:55;;;;;;;11.55;8.70;;;;;;;;;;5027827;27;99180;-75
2023/03/02 14:23:23;;;;;;;14.20;11.00;;;;;;;;;;5032175;27;98227;-75
2023/03/02 14:25:50;;;;;;;14.60;11.10;;;;;;;;;;5027324;27;100296;-75